createdAt,value
2018-08-13T00:00:02.887Z,48.10
2018-08-13T00:02:31.543Z,48.30
2018-08-13T00:05:00.186Z,48.40
2018-08-13T00:07:28.828Z,48.40
2018-08-13T00:09:57.680Z,48.80
2018-08-13T00:12:26.334Z,48.90
2018-08-13T00:14:54.998Z,49.00
2018-08-13T00:17:23.648Z,49.00
2018-08-13T00:19:52.340Z,49.20
2018-08-13T00:22:20.960Z,49.40
2018-08-13T00:24:49.624Z,49.60
2018-08-13T00:27:18.237Z,49.80
2018-08-13T00:29:46.911Z,49.90
2018-08-13T00:32:15.546Z,50.30
2018-08-13T00:34:44.270Z,50.70
2018-08-13T00:37:13.016Z,50.80
2018-08-13T00:39:41.732Z,50.60
2018-08-13T00:42:10.392Z,50.70
2018-08-13T00:44:39.168Z,50.80
2018-08-13T00:47:07.813Z,50.80
2018-08-13T00:49:36.557Z,50.70
2018-08-13T00:52:05.197Z,51.00
2018-08-13T00:54:34.031Z,50.70
2018-08-13T00:57:02.709Z,50.70
2018-08-13T00:59:31.380Z,50.80
2018-08-13T01:02:00.018Z,51.00
2018-08-13T01:04:28.668Z,50.80
2018-08-13T01:06:57.446Z,51.10
2018-08-13T01:09:26.115Z,51.20
2018-08-13T01:11:54.793Z,51.10
2018-08-13T01:14:23.467Z,51.40
2018-08-13T01:16:52.109Z,51.50
2018-08-13T01:19:20.777Z,51.40
2018-08-13T01:21:49.414Z,51.40
2018-08-13T01:24:18.230Z,51.30
2018-08-13T01:26:46.882Z,51.50
2018-08-13T01:29:15.556Z,51.70
2018-08-13T01:31:44.218Z,51.80
2018-08-13T01:34:12.858Z,51.90
2018-08-13T01:36:41.534Z,52.00
2018-08-13T01:39:11.092Z,52.10
2018-08-13T01:41:39.754Z,51.70
2018-08-13T01:44:08.418Z,51.80
2018-08-13T01:46:37.084Z,52.10
2018-08-13T01:49:05.753Z,52.00
2018-08-13T01:51:34.407Z,51.70
2018-08-13T01:54:03.063Z,51.60
2018-08-13T01:56:31.732Z,51.30
2018-08-13T01:59:00.405Z,51.10
2018-08-13T02:01:29.361Z,51.30
2018-08-13T02:03:57.984Z,51.00
2018-08-13T02:06:26.647Z,51.10
2018-08-13T02:08:56.116Z,51.60
2018-08-13T02:11:24.770Z,51.50
2018-08-13T02:13:53.422Z,51.40
2018-08-13T02:16:22.070Z,51.50
2018-08-13T02:18:50.732Z,51.50
2018-08-13T02:21:19.469Z,51.20
2018-08-13T02:23:48.138Z,51.20
2018-08-13T02:26:16.846Z,51.20
2018-08-13T02:28:45.476Z,51.30
2018-08-13T02:31:14.130Z,51.30
2018-08-13T02:33:43.084Z,51.20
2018-08-13T02:36:11.758Z,51.20
2018-08-13T02:38:40.427Z,51.00
2018-08-13T02:41:09.113Z,51.10
2018-08-13T02:43:37.788Z,51.10
2018-08-13T02:46:06.773Z,51.10
2018-08-13T02:48:35.640Z,51.20
2018-08-13T02:51:04.533Z,51.50
2018-08-13T02:53:33.227Z,51.40
2018-08-13T02:56:01.893Z,51.50
2018-08-13T02:58:30.574Z,51.50
2018-08-13T03:00:59.228Z,51.00
2018-08-13T03:03:27.897Z,51.40
2018-08-13T03:05:56.545Z,51.90
2018-08-13T03:08:25.206Z,51.80
2018-08-13T03:10:53.870Z,52.00
2018-08-13T03:13:22.555Z,51.80
2018-08-13T03:15:51.221Z,51.60
2018-08-13T03:18:20.039Z,51.80
2018-08-13T03:20:48.701Z,52.10
2018-08-13T03:23:17.359Z,52.00
2018-08-13T03:25:45.999Z,52.20
2018-08-13T03:28:14.703Z,52.30
2018-08-13T03:30:43.335Z,52.50
2018-08-13T03:33:11.977Z,52.30
2018-08-13T03:35:40.705Z,52.50
2018-08-13T03:38:09.373Z,52.30
2018-08-13T03:40:38.029Z,52.40
2018-08-13T03:43:06.711Z,52.50
2018-08-13T03:45:35.353Z,52.70
2018-08-13T03:48:04.418Z,53.00
2018-08-13T03:50:33.073Z,53.30
2018-08-13T03:53:01.749Z,53.60
2018-08-13T03:55:30.411Z,53.60
2018-08-13T03:57:59.083Z,53.70
2018-08-13T04:00:27.773Z,53.80
2018-08-13T04:02:56.428Z,53.60
2018-08-13T04:05:25.104Z,53.60
2018-08-13T04:07:53.789Z,53.90
2018-08-13T04:10:22.436Z,53.90
2018-08-13T04:12:51.142Z,53.90
2018-08-13T04:15:19.771Z,53.90
2018-08-13T04:17:48.440Z,53.60
2018-08-13T04:20:17.076Z,53.60
2018-08-13T04:22:45.763Z,53.60
2018-08-13T04:25:14.418Z,53.60
2018-08-13T04:27:43.068Z,53.60
2018-08-13T04:30:14.164Z,53.70
2018-08-13T04:32:43.633Z,53.70
2018-08-13T04:35:12.304Z,53.90
2018-08-13T04:37:41.658Z,54.30
2018-08-13T04:40:12.595Z,54.10
2018-08-13T04:42:42.118Z,54.20
2018-08-13T04:45:11.247Z,54.00
2018-08-13T04:47:40.221Z,54.30
2018-08-13T04:50:10.015Z,54.60
2018-08-13T04:52:38.806Z,54.70
2018-08-13T04:55:08.641Z,55.00
2018-08-13T04:57:37.260Z,55.60
2018-08-13T05:00:06.350Z,55.30
2018-08-13T05:02:35.034Z,56.10
2018-08-13T05:05:04.532Z,56.40
2018-08-13T05:07:33.185Z,56.90
2018-08-13T05:10:01.852Z,57.00
2018-08-13T05:12:30.491Z,57.10
2018-08-13T05:14:59.200Z,57.30
2018-08-13T05:17:27.943Z,57.10
2018-08-13T05:19:56.592Z,57.00
2018-08-13T05:22:25.245Z,57.00
2018-08-13T05:24:53.896Z,57.00
2018-08-13T05:27:22.599Z,57.30
2018-08-13T05:29:51.325Z,57.10
2018-08-13T05:32:19.930Z,56.00
2018-08-13T05:34:48.568Z,55.10
2018-08-13T05:37:17.252Z,54.90
2018-08-13T05:39:45.900Z,54.90
2018-08-13T05:42:14.688Z,54.50
2018-08-13T05:44:43.464Z,54.80
2018-08-13T05:47:12.100Z,54.30
2018-08-13T05:49:40.800Z,54.50
2018-08-13T05:52:09.480Z,54.40
2018-08-13T05:54:38.224Z,54.60
2018-08-13T05:57:06.848Z,54.30
2018-08-13T05:59:35.521Z,54.60
2018-08-13T06:02:04.472Z,54.40
2018-08-13T06:04:33.178Z,54.40
2018-08-13T06:07:03.816Z,54.60
2018-08-13T06:09:32.559Z,54.90
2018-08-13T06:12:02.425Z,54.90
2018-08-13T06:14:31.063Z,55.20
2018-08-13T06:16:59.784Z,55.30
2018-08-13T06:19:28.525Z,55.30
2018-08-13T06:21:57.207Z,55.00
2018-08-13T06:24:25.955Z,55.60
2018-08-13T06:26:54.560Z,54.50
2018-08-13T06:29:23.243Z,54.10
2018-08-13T06:31:51.956Z,54.40
2018-08-13T06:34:20.614Z,54.80
2018-08-13T06:36:49.298Z,54.40
2018-08-13T06:39:18.011Z,54.20
2018-08-13T06:41:46.752Z,54.50
2018-08-13T06:44:15.402Z,54.10
2018-08-13T06:46:44.103Z,55.10
2018-08-13T06:49:12.794Z,54.60
2018-08-13T06:51:41.498Z,54.70
2018-08-13T06:54:10.169Z,54.50
2018-08-13T06:56:38.817Z,54.30
2018-08-13T06:59:07.495Z,54.40
2018-08-13T07:01:36.149Z,54.40
2018-08-13T07:04:04.855Z,54.20
2018-08-13T07:06:33.521Z,54.00
2018-08-13T07:09:02.199Z,54.10
2018-08-13T07:11:31.267Z,53.90
2018-08-13T07:13:59.951Z,52.70
2018-08-13T07:16:28.619Z,53.10
2018-08-13T07:18:57.295Z,53.40
2018-08-13T07:21:25.960Z,52.80
2018-08-13T07:23:54.632Z,53.30
2018-08-13T07:26:23.421Z,53.50
2018-08-13T07:28:52.083Z,53.20
2018-08-13T07:31:20.785Z,53.90
2018-08-13T07:33:49.543Z,53.30
2018-08-13T07:36:18.141Z,53.20
2018-08-13T07:38:46.827Z,53.60
2018-08-13T07:41:15.523Z,53.10
2018-08-13T07:43:44.211Z,53.10
2018-08-13T07:46:12.938Z,53.10
2018-08-13T07:48:41.600Z,53.80
2018-08-13T07:51:10.257Z,52.40
2018-08-13T07:53:38.907Z,52.40
2018-08-13T07:56:07.581Z,52.60
2018-08-13T07:58:36.365Z,52.60
2018-08-13T08:01:05.205Z,52.40
2018-08-13T08:03:33.902Z,52.80
2018-08-13T08:06:03.010Z,53.00
2018-08-13T08:08:31.719Z,53.00
2018-08-13T08:11:00.438Z,52.20
2018-08-13T08:13:29.126Z,52.30
2018-08-13T08:15:57.765Z,51.90
2018-08-13T08:18:26.420Z,51.50
2018-08-13T08:20:55.149Z,51.30
2018-08-13T08:23:23.800Z,50.80
2018-08-13T08:25:52.543Z,50.20
2018-08-13T08:28:21.238Z,48.80
2018-08-13T08:30:49.936Z,49.90
2018-08-13T08:33:18.788Z,49.90
2018-08-13T08:35:47.600Z,50.00
2018-08-13T08:38:16.349Z,49.50
2018-08-13T08:40:45.132Z,50.10
2018-08-13T08:43:13.765Z,48.90
2018-08-13T08:45:42.600Z,48.20
2018-08-13T08:48:11.273Z,48.00
2018-08-13T08:50:39.989Z,46.60
2018-08-13T08:53:08.769Z,45.90
2018-08-13T08:55:37.472Z,46.40
2018-08-13T08:58:06.165Z,46.10
2018-08-13T09:00:34.885Z,46.20
2018-08-13T09:03:03.630Z,46.60
2018-08-13T09:05:32.384Z,46.10
2018-08-13T09:08:01.111Z,45.60
2018-08-13T09:10:29.783Z,45.00
2018-08-13T09:12:58.461Z,45.10
2018-08-13T09:15:27.185Z,44.60
2018-08-13T09:18:07.387Z,44.80
2018-08-13T09:20:47.665Z,44.40
2018-08-13T09:23:27.710Z,43.80
2018-08-13T09:26:07.852Z,41.70
2018-08-13T09:28:48.017Z,41.20
2018-08-13T09:31:28.047Z,39.50
2018-08-13T09:34:08.530Z,38.50
2018-08-13T09:36:37.204Z,36.60
2018-08-13T09:39:07.437Z,36.70
2018-08-13T09:41:36.141Z,35.70
2018-08-13T09:44:04.790Z,35.20
2018-08-13T09:46:33.459Z,34.90
2018-08-13T09:49:02.128Z,35.00
2018-08-13T09:51:30.801Z,33.00
2018-08-13T09:53:59.496Z,33.50
2018-08-13T09:56:28.212Z,33.40
2018-08-13T09:58:56.906Z,32.30
2018-08-13T10:01:25.718Z,31.20
2018-08-13T10:03:54.460Z,31.50
2018-08-13T10:06:23.200Z,30.40
2018-08-13T10:08:51.852Z,29.40
2018-08-13T10:11:20.540Z,29.50
2018-08-13T10:13:49.461Z,29.70
2018-08-13T10:16:18.802Z,29.30
2018-08-13T10:18:49.438Z,29.70
2018-08-13T10:21:18.146Z,28.60
2018-08-13T10:26:25.006Z,27.80
2018-08-13T10:28:53.652Z,29.00
2018-08-13T10:31:22.360Z,28.10
2018-08-13T10:33:51.097Z,28.30
2018-08-13T10:36:20.794Z,28.60
2018-08-13T10:38:49.494Z,29.10
2018-08-13T10:41:19.350Z,27.60
2018-08-13T10:43:48.095Z,27.80
2018-08-13T10:46:17.904Z,27.30
2018-08-13T10:48:46.597Z,26.70
2018-08-13T10:51:15.326Z,26.30
2018-08-13T10:53:44.055Z,25.80
2018-08-13T10:56:12.759Z,26.00
2018-08-13T10:58:41.434Z,24.50
2018-08-13T11:01:10.228Z,25.10
2018-08-13T11:03:38.794Z,24.80
2018-08-13T11:06:07.439Z,24.20
2018-08-13T11:08:36.158Z,23.60
2018-08-13T11:11:04.847Z,23.30
2018-08-13T11:13:33.615Z,23.00
2018-08-13T11:16:02.331Z,22.50
2018-08-13T11:18:31.115Z,23.00
2018-08-13T11:21:00.247Z,23.10
2018-08-13T11:23:29.341Z,23.50
2018-08-13T11:25:58.237Z,24.30
2018-08-13T11:28:27.137Z,22.60
2018-08-13T11:30:55.769Z,22.80
2018-08-13T11:33:24.465Z,22.70
2018-08-13T11:35:53.206Z,23.40
2018-08-13T11:38:21.930Z,23.30
2018-08-13T11:40:50.610Z,23.90
2018-08-13T11:43:19.313Z,25.30
2018-08-13T11:45:47.957Z,25.50
2018-08-13T11:48:16.648Z,25.60
2018-08-13T11:50:45.399Z,25.50
2018-08-13T11:53:14.078Z,26.50
2018-08-13T11:55:42.739Z,25.80
2018-08-13T11:58:11.501Z,26.40
2018-08-13T12:00:40.256Z,26.80
2018-08-13T12:03:08.898Z,26.20
2018-08-13T12:05:37.560Z,26.30
2018-08-13T12:08:06.282Z,26.10
2018-08-13T12:10:38.012Z,26.40
2018-08-13T12:13:06.862Z,26.90
2018-08-13T12:15:35.907Z,26.40
2018-08-13T12:18:05.886Z,26.50
2018-08-13T12:20:34.628Z,26.60
2018-08-13T12:23:03.312Z,26.20
2018-08-13T12:25:32.411Z,26.80
2018-08-13T12:28:01.157Z,26.30
2018-08-13T12:30:29.839Z,25.50
2018-08-13T12:32:58.485Z,25.70
2018-08-13T12:35:27.173Z,25.40
2018-08-13T12:37:55.883Z,25.40
2018-08-13T12:40:24.556Z,24.50
2018-08-13T12:42:53.303Z,24.40
2018-08-13T12:45:22.001Z,24.40
2018-08-13T12:47:50.664Z,24.80
2018-08-13T12:50:20.445Z,24.90
2018-08-13T12:52:50.278Z,25.40
2018-08-13T12:55:19.035Z,25.40
2018-08-13T12:57:47.717Z,25.70
2018-08-13T13:00:17.554Z,25.70
2018-08-13T13:02:46.197Z,25.30
2018-08-13T13:05:16.127Z,26.10
2018-08-13T13:07:44.928Z,25.40
2018-08-13T13:10:14.836Z,26.10
2018-08-13T13:12:43.854Z,26.50
2018-08-13T13:15:16.200Z,26.20
2018-08-13T13:17:44.855Z,26.70
2018-08-13T13:20:15.749Z,26.30
2018-08-13T13:22:44.410Z,25.90
2018-08-13T13:25:13.077Z,25.90
2018-08-13T13:27:41.808Z,26.10
2018-08-13T13:30:12.195Z,26.10
2018-08-13T13:32:41.088Z,26.70
2018-08-13T13:35:11.161Z,26.10
2018-08-13T13:37:39.841Z,25.70
2018-08-13T13:40:12.108Z,25.10
2018-08-13T13:42:40.798Z,25.40
2018-08-13T13:45:10.601Z,25.40
2018-08-13T13:47:39.520Z,24.80
2018-08-13T13:50:11.298Z,25.40
2018-08-13T13:52:39.984Z,24.50
2018-08-13T13:55:08.786Z,24.40
2018-08-13T13:57:37.568Z,24.70
2018-08-13T14:00:15.219Z,25.00
2018-08-13T14:02:44.217Z,25.80
2018-08-13T14:05:13.128Z,25.10
2018-08-13T14:07:41.820Z,24.80
2018-08-13T14:10:14.762Z,24.60
2018-08-13T14:12:44.126Z,24.80
2018-08-13T14:15:14.290Z,25.10
2018-08-13T14:17:43.450Z,25.20
2018-08-13T14:22:47.121Z,25.70
2018-08-13T14:25:15.972Z,25.70
2018-08-13T14:27:44.667Z,25.90
2018-08-13T14:30:17.788Z,25.80
2018-08-13T14:32:47.060Z,26.00
2018-08-13T14:35:15.765Z,26.00
2018-08-13T14:37:44.464Z,26.30
2018-08-13T14:40:13.513Z,26.20
2018-08-13T14:42:42.806Z,26.50
2018-08-13T14:45:13.206Z,26.20
2018-08-13T14:47:43.248Z,26.20
2018-08-13T14:50:12.451Z,26.70
2018-08-13T14:52:42.715Z,26.60
2018-08-13T14:55:11.909Z,26.90
2018-08-13T14:57:40.595Z,27.30
2018-08-13T15:00:14.407Z,27.60
2018-08-13T15:02:43.100Z,27.70
2018-08-13T15:05:11.821Z,27.70
2018-08-13T15:07:40.488Z,28.10
2018-08-13T15:10:12.485Z,27.80
2018-08-13T15:12:41.511Z,28.20
2018-08-13T15:15:11.280Z,28.30
2018-08-13T15:17:40.370Z,28.90
2018-08-13T15:20:13.385Z,29.40
2018-08-13T15:22:42.074Z,29.70
2018-08-13T15:25:10.753Z,29.80
2018-08-13T15:27:39.662Z,30.40
2018-08-13T15:30:11.278Z,30.40
2018-08-13T15:32:39.991Z,30.90
2018-08-13T15:35:09.174Z,31.30
2018-08-13T15:37:37.860Z,31.70
2018-08-13T15:40:07.426Z,32.30
2018-08-13T15:42:36.324Z,32.60
2018-08-13T15:45:06.922Z,33.00
2018-08-13T15:47:35.580Z,33.30
2018-08-13T15:50:04.709Z,33.50
2018-08-13T15:52:33.380Z,34.00
2018-08-13T15:55:02.261Z,34.20
2018-08-13T15:57:30.982Z,34.20
2018-08-13T15:59:59.740Z,34.60
2018-08-13T16:02:28.464Z,34.90
2018-08-13T16:04:57.147Z,35.10
2018-08-13T16:07:25.792Z,35.30
2018-08-13T16:09:54.574Z,35.70
2018-08-13T16:12:23.220Z,36.10
2018-08-13T16:14:51.942Z,36.50
2018-08-13T16:17:20.585Z,36.90
2018-08-13T16:19:49.252Z,37.40
2018-08-13T16:22:17.924Z,38.00
2018-08-13T16:24:46.772Z,38.50
2018-08-13T16:27:15.512Z,38.90
2018-08-13T16:29:44.260Z,39.60
2018-08-13T16:32:12.928Z,39.80
2018-08-13T16:34:41.609Z,39.90
2018-08-13T16:37:10.247Z,41.70
2018-08-13T16:39:38.876Z,42.80
2018-08-13T16:42:07.544Z,43.60
2018-08-13T16:44:36.248Z,43.10
2018-08-13T16:47:04.956Z,46.00
2018-08-13T16:49:33.625Z,49.20
2018-08-13T16:52:02.266Z,53.00
2018-08-13T16:54:30.937Z,51.50
2018-08-13T16:56:59.717Z,53.50
2018-08-13T16:59:28.361Z,52.80
2018-08-13T17:01:57.021Z,56.00
2018-08-13T17:04:25.761Z,55.70
2018-08-13T17:06:54.433Z,57.40
2018-08-13T17:09:23.141Z,57.40
2018-08-13T17:11:51.779Z,55.80
2018-08-13T17:14:20.720Z,54.40
2018-08-13T17:16:49.193Z,57.00
2018-08-13T17:19:17.865Z,55.30
2018-08-13T17:21:46.531Z,55.70
2018-08-13T17:24:15.491Z,54.00
2018-08-13T17:26:44.585Z,54.60
2018-08-13T17:29:13.231Z,55.90
2018-08-13T17:31:41.876Z,56.50
2018-08-13T17:34:10.940Z,56.50
2018-08-13T17:36:39.888Z,56.10
2018-08-13T17:39:11.890Z,57.20
2018-08-13T17:41:40.936Z,54.50
2018-08-13T17:44:09.681Z,53.30
2018-08-13T17:46:38.819Z,53.10
2018-08-13T17:49:07.946Z,52.50
2018-08-13T17:51:36.859Z,52.90
2018-08-13T17:54:05.544Z,52.20
2018-08-13T17:56:34.245Z,52.20
2018-08-13T17:59:02.965Z,52.50
2018-08-13T18:01:31.709Z,52.80
2018-08-13T18:04:00.396Z,53.20
2018-08-13T18:06:29.095Z,52.80
2018-08-13T18:08:57.772Z,52.40
2018-08-13T18:11:26.458Z,52.20
2018-08-13T18:13:55.174Z,52.80
2018-08-13T18:16:23.828Z,52.70
2018-08-13T18:18:52.486Z,53.20
2018-08-13T18:21:21.251Z,52.90
2018-08-13T18:23:49.890Z,53.70
2018-08-13T18:26:18.608Z,54.20
2018-08-13T18:28:47.337Z,54.60
2018-08-13T18:31:16.033Z,55.10
2018-08-13T18:33:44.697Z,55.60
2018-08-13T18:36:13.384Z,56.30
2018-08-13T18:38:42.092Z,56.70
2018-08-13T18:41:10.849Z,56.10
2018-08-13T18:43:39.502Z,55.70
2018-08-13T18:46:08.218Z,55.20
2018-08-13T18:48:36.869Z,54.40
2018-08-13T18:51:05.534Z,54.60
2018-08-13T18:53:34.323Z,55.00
2018-08-13T18:56:02.981Z,55.30
2018-08-13T18:58:31.649Z,55.50
2018-08-13T19:01:00.359Z,55.70
2018-08-13T19:03:29.023Z,55.90
2018-08-13T19:05:57.773Z,56.10
2018-08-13T19:08:26.447Z,56.50
2018-08-13T19:10:55.172Z,56.60
2018-08-13T19:13:23.849Z,56.70
2018-08-13T19:15:52.528Z,56.90
2018-08-13T19:18:21.271Z,56.90
2018-08-13T19:20:49.876Z,56.90
2018-08-13T19:23:18.536Z,57.20
2018-08-13T19:25:47.221Z,57.00
2018-08-13T19:28:15.879Z,57.20
2018-08-13T19:30:44.558Z,57.20
2018-08-13T19:33:13.223Z,57.10
2018-08-13T19:35:41.930Z,57.50
2018-08-13T19:38:10.628Z,57.40
2018-08-13T19:40:39.294Z,57.80
2018-08-13T19:43:07.998Z,58.00
2018-08-13T19:45:36.714Z,58.10
2018-08-13T19:48:05.341Z,58.40
2018-08-13T19:50:34.101Z,58.50
2018-08-13T19:53:02.768Z,58.70
2018-08-13T19:55:31.483Z,58.70
2018-08-13T19:58:00.121Z,58.80
2018-08-13T20:00:29.440Z,59.00
2018-08-13T20:02:58.105Z,59.30
2018-08-13T20:05:27.789Z,59.40
2018-08-13T20:07:56.688Z,59.30
2018-08-13T20:10:25.387Z,59.60
2018-08-13T20:12:54.042Z,59.70
2018-08-13T20:15:22.718Z,60.00
2018-08-13T20:17:51.366Z,60.00
2018-08-13T20:20:20.596Z,60.10
2018-08-13T20:22:49.644Z,60.10
2018-08-13T20:25:19.466Z,60.40
2018-08-13T20:27:48.766Z,60.60
2018-08-13T20:30:19.105Z,60.60
2018-08-13T20:32:49.013Z,60.50
2018-08-13T20:35:17.837Z,60.60
2018-08-13T20:37:46.603Z,61.00
2018-08-13T20:40:16.816Z,61.10
2018-08-13T20:42:46.169Z,61.00
2018-08-13T20:45:16.655Z,61.20
2018-08-13T20:47:45.706Z,61.20
2018-08-13T20:50:16.624Z,61.10
2018-08-13T20:52:45.966Z,61.10
2018-08-13T20:55:17.154Z,61.40
2018-08-13T20:57:46.909Z,61.40
2018-08-13T21:00:16.675Z,61.30
2018-08-13T21:02:46.626Z,61.60
2018-08-13T21:05:15.851Z,61.60
2018-08-13T21:07:45.200Z,61.80
2018-08-13T21:10:15.885Z,62.20
2018-08-13T21:12:44.581Z,62.10
2018-08-13T21:15:14.445Z,62.10
2018-08-13T21:17:43.269Z,62.20
2018-08-13T21:20:18.285Z,62.40
2018-08-13T21:22:46.963Z,62.60
2018-08-13T21:25:15.599Z,62.60
2018-08-13T21:27:44.333Z,62.90
2018-08-13T21:30:12.989Z,62.70
2018-08-13T21:32:42.603Z,63.40
2018-08-13T21:35:14.408Z,63.00
2018-08-13T21:37:43.074Z,63.20
2018-08-13T21:40:11.781Z,63.70
2018-08-13T21:42:40.473Z,63.90
2018-08-13T21:45:09.889Z,63.70
2018-08-13T21:47:38.876Z,63.80
2018-08-13T21:50:09.874Z,63.90
2018-08-13T21:52:38.534Z,63.90
2018-08-13T21:55:07.630Z,63.90
2018-08-13T21:57:36.298Z,64.00
2018-08-13T22:00:08.812Z,63.90
2018-08-13T22:02:37.492Z,64.20
2018-08-13T22:05:06.149Z,64.40
2018-08-13T22:07:34.824Z,64.50
2018-08-13T22:10:04.099Z,64.60
2018-08-13T22:12:32.771Z,64.70
2018-08-13T22:15:01.433Z,64.70
2018-08-13T22:17:30.152Z,64.40
2018-08-13T22:19:58.920Z,64.60
2018-08-13T22:22:28.615Z,65.00
2018-08-13T22:25:03.244Z,64.80
2018-08-13T22:27:31.975Z,65.00
2018-08-13T22:30:00.738Z,64.70
2018-08-13T22:32:29.384Z,64.70
2018-08-13T22:34:58.059Z,64.70
2018-08-13T22:37:26.749Z,65.10
2018-08-13T22:39:55.372Z,65.20
2018-08-13T22:42:24.030Z,65.00
2018-08-13T22:44:52.705Z,64.80
2018-08-13T22:47:21.377Z,65.00
2018-08-13T22:49:50.017Z,65.20
2018-08-13T22:52:18.701Z,65.50
2018-08-13T22:54:47.462Z,65.60
2018-08-13T22:57:16.101Z,65.80
2018-08-13T22:59:44.765Z,65.50
2018-08-13T23:02:13.416Z,65.90
2018-08-13T23:04:42.064Z,66.10
2018-08-13T23:07:17.541Z,66.00
2018-08-13T23:09:46.217Z,65.80
2018-08-13T23:12:14.865Z,66.00
2018-08-13T23:14:43.502Z,65.90
2018-08-13T23:17:12.173Z,66.00
2018-08-13T23:19:40.809Z,65.90
2018-08-13T23:22:09.527Z,65.70
2018-08-13T23:24:38.229Z,65.70
2018-08-13T23:27:06.885Z,65.60
2018-08-13T23:29:35.557Z,65.70
2018-08-13T23:32:04.209Z,66.00
2018-08-13T23:34:32.925Z,65.90
2018-08-13T23:37:01.585Z,65.80
2018-08-13T23:39:30.235Z,65.90
2018-08-13T23:41:58.937Z,66.10
2018-08-13T23:44:27.588Z,66.30
2018-08-13T23:46:56.252Z,66.20
2018-08-13T23:49:24.911Z,66.40
2018-08-13T23:51:53.551Z,66.30
2018-08-13T23:54:22.227Z,66.40
2018-08-13T23:56:50.871Z,66.00
2018-08-13T23:59:19.557Z,66.00
